CBAPRS
Automatic Packet Reporting System for everyone...
Symbol
PositionLatitude: 52.6375°
Longitude: -2.0265°
Speed0km/h
Course
AltitudeN/A
Comment& BPQ32 NODE CBAPRS,27.235Mhz FM 1200b Packet Radio
Status
PathENG040-14>ID via ,WIDE1-2,WIDE2-3,qAR,CT1NET
Last heardWed, 3 Jun 2020 13:12:10 +0000

Time is in UTC

  • Wed, 3 Jun 2020 13:12:10 +0000: ENG040-14>ID,,WIDE1-2,WIDE2-3,qAR,CT1NET:=5238.25N/00201.59W & BPQ32 NODE CBAPRS,27.235Mhz FM 1200b Packet Radio
  • Tue, 2 Jun 2020 18:15:47 +0000: ENG040-14>ID,,WIDE1-2,WIDE2-3,qAR,CT1NET:=5238.25N/00201.59W & BPQ32 NODE CBAPRS,27.235Mhz FM 1200b Packet Radio
  • Tue, 2 Jun 2020 16:43:15 +0000: ENG040-14>ID,,WIDE1-2,WIDE2-3,qAR,CT0NET:=5238.25N/00201.59W & BPQ32 NODE CBAPRS,27.235Mhz FM 1200b Packet Radio
  • Tue, 2 Jun 2020 13:16:45 +0000: ENG040-14>ID,,WIDE1-2,WIDE2-3,qAR,CB7ALM-3:=5238.25N/00201.59W & BPQ32 NODE CBAPRS,27.235Mhz FM 1200b Packet Radio
  • Mon, 1 Jun 2020 22:58:06 +0000: ENG040-14>ID,,WIDE1-2,WIDE2-3,qAR,AT7NOD-7:=5238.25N/00201.59W & BPQ32 NODE CBAPRS,27.235Mhz FM 1200b Packet Radio
  • Mon, 1 Jun 2020 20:39:17 +0000: ENG040-14>ID,,WIDE1-2,WIDE2-3,qAR,13FHO:=5238.25N/00201.59W & BPQ32 NODE CBAPRS,27.235Mhz FM 1200b Packet Radio
  • Mon, 1 Jun 2020 20:17:25 +0000: ENG040-14>ID,,WIDE1-2,WIDE2-3,qAR,CT1NET:=5238.25N/00201.59W & BPQ32 NODE CBAPRS,27.235Mhz FM 1200b Packet Radio
  • Mon, 1 Jun 2020 19:29:36 +0000: ENG040-14>ID,,WIDE1-2,WIDE2-3,qAR,CT1NET:=5238.25N/00201.59W & BPQ32 NODE CBAPRS,27.235Mhz FM 1200b Packet Radio
  • Mon, 1 Jun 2020 19:07:16 +0000: ENG040-14>ID,,WIDE1-2,WIDE2-3,qAR,CB1RAM-7:=5238.25N/00201.59W & BPQ32 NODE CBAPRS,27.235Mhz FM 1200b Packet Radio
  • Mon, 1 Jun 2020 18:43:22 +0000: ENG040-14>ID,,WIDE1-2,WIDE2-3,qAR,AT7NOD-7:=5238.25N/00201.59W & BPQ32 NODE CBAPRS,27.235Mhz FM 1200b Packet Radio
  • Mon, 1 Jun 2020 18:21:49 +0000: ENG040-14>ID,,WIDE1-2,WIDE2-3,qAS,DND665:=5238.25N/00201.59W & BPQ32 NODE CBAPRS,27.235Mhz FM 1200b Packet Radio
  • Mon, 1 Jun 2020 17:33:55 +0000: ENG040-14>ID,,WIDE1-2,WIDE2-3,qAR,AT7NOD-7:=5238.25N/00201.59W & BPQ32 NODE CBAPRS,27.235Mhz FM 1200b Packet Radio
  • Mon, 1 Jun 2020 17:11:40 +0000: ENG040-14>ID,,WIDE1-2,WIDE2-3,qAR,DX3RRR-7:=5238.25N/00201.59W & BPQ32 NODE CBAPRS,27.235Mhz FM 1200b Packet Radio
  • Mon, 1 Jun 2020 16:47:29 +0000: ENG040-14>ID,,WIDE1-2,WIDE2-3,qAR,NL5VKL-8:=5238.25N/00201.59W & BPQ32 NODE CBAPRS,27.235Mhz FM 1200b Packet Radio
  • Mon, 1 Jun 2020 16:01:43 +0000: ENG040-14>ID,,WIDE1-2,WIDE2-3,qAS,DND665:=5238.25N/00201.59W & BPQ32 NODE CBAPRS,27.235Mhz FM 1200b Packet Radio
  • Mon, 1 Jun 2020 13:18:58 +0000: ENG040-14>ID,,WIDE1-2,WIDE2-3,qAR,CT1NET:=5238.25N/00201.59W & BPQ32 NODE CBAPRS,27.235Mhz FM 1200b Packet Radio
  • Mon, 1 Jun 2020 12:56:51 +0000: ENG040-14>ID,,WIDE1-2,WIDE2-3,qAR,CB6APR:=5238.25N/00201.59W & BPQ32 NODE CBAPRS,27.235Mhz FM 1200b Packet Radio
  • Mon, 1 Jun 2020 11:23:21 +0000: ENG040-14>ID,,WIDE1-2,WIDE2-3,qAS,DND665:=5238.25N/00201.59W & BPQ32 NODE CBAPRS,27.235Mhz FM 1200b Packet Radio
  • Mon, 1 Jun 2020 11:01:27 +0000: ENG040-14>ID,,WIDE1-2,WIDE2-3,qAR,NL1ZUT-10:=5238.25N/00201.59W & BPQ32 NODE CBAPRS,27.235Mhz FM 1200b Packet Radio
  • Mon, 1 Jun 2020 09:51:27 +0000: ENG040-14>ID,,WIDE1-2,WIDE2-3,qAR,NL1ZUT-10:=5238.25N/00201.59W & BPQ32 NODE CBAPRS,27.235Mhz FM 1200b Packet Radio
  • Mon, 1 Jun 2020 07:56:38 +0000: ENG040-14>ID,,WIDE1-2,WIDE2-3,qAS,DND665:=5238.25N/00201.59W & BPQ32 NODE CBAPRS,27.235Mhz FM 1200b Packet Radio
  • Mon, 1 Jun 2020 07:32:41 +0000: ENG040-14>ID,,WIDE1-2,WIDE2-3,qAS,DND665:=5238.25N/00201.59W & BPQ32 NODE CBAPRS,27.235Mhz FM 1200b Packet Radio
  • Sun, 31 May 2020 19:11:35 +0000: ENG040-14>ID,,WIDE1-2,WIDE2-3,qAR,CT0NET:=5238.25N/00201.59W & BPQ32 NODE CBAPRS,27.235Mhz FM 1200b Packet Radio
  • Sun, 31 May 2020 17:15:45 +0000: ENG040-14>ID,,WIDE1-2,WIDE2-3,qAS,DND665:=5238.25N/00201.59W & BPQ32 NODE CBAPRS,27.235Mhz FM 1200b Packet Radio
  • Sun, 31 May 2020 16:30:00 +0000: ENG040-14>ID,,WIDE1-2,WIDE2-3,qAR,CT1NET:=5238.25N/00201.59W & BPQ32 NODE CBAPRS,27.235Mhz FM 1200b Packet Radio
  • Sun, 31 May 2020 11:05:20 +0000: ENG040-14>ID,,WIDE1-2,WIDE2-3,qAR,CT1NET:=5238.25N/00201.59W & BPQ32 NODE CBAPRS,27.235Mhz FM 1200b Packet Radio
  • Sun, 31 May 2020 10:19:19 +0000: ENG040-14>ID,,WIDE1-2,WIDE2-3,qAR,CT1NET:=5238.25N/00201.59W & BPQ32 NODE CBAPRS,27.235Mhz FM 1200b Packet Radio
  • Sun, 31 May 2020 09:34:10 +0000: ENG040-14>ID,,WIDE1-2,WIDE2-3,qAR,CT1NET:=5238.25N/00201.59W & BPQ32 NODE CBAPRS,27.235Mhz FM 1200b Packet Radio
  • Sun, 31 May 2020 09:10:05 +0000: ENG040-14>ID,,WIDE1-2,WIDE2-3,qAR,CT1NET:=5238.25N/00201.59W & BPQ32 NODE CBAPRS,27.235Mhz FM 1200b Packet Radio
  • Sun, 31 May 2020 08:46:55 +0000: ENG040-14>ID,,WIDE1-2,WIDE2-3,qAS,DND665:=5238.25N/00201.59W & BPQ32 NODE CBAPRS,27.235Mhz FM 1200b Packet Radio
  • Sun, 31 May 2020 08:24:38 +0000: ENG040-14>ID,,WIDE1-2,WIDE2-3,qAR,CT1NET:=5238.25N/00201.59W & BPQ32 NODE CBAPRS,27.235Mhz FM 1200b Packet Radio
  • Sat, 30 May 2020 16:35:24 +0000: ENG040-14>ID,,WIDE1-2,WIDE2-3,qAR,CT1NET:=5238.25N/00201.59W & BPQ32 NODE CBAPRS,27.235Mhz FM 1200b Packet Radio
  • Sat, 30 May 2020 14:15:26 +0000: ENG040-14>ID,,WIDE1-2,WIDE2-3:=5238.25N/00201.59W & BPQ32 NODE CBAPRS,27.235Mhz FM 1200b Packet Radio
  • Sat, 30 May 2020 13:28:58 +0000: ENG040-14>ID,,WIDE1-2,WIDE2-3:=5238.25N/00201.59W & BPQ32 NODE CBAPRS,27.235Mhz FM 1200b Packet Radio
  • Sat, 30 May 2020 13:06:05 +0000: ENG040-14>ID,,WIDE1-2,WIDE2-3:=5238.25N/00201.59W & BPQ32 NODE CBAPRS,27.235Mhz FM 1200b Packet Radio
  • Sat, 30 May 2020 12:42:45 +0000: ENG040-14>ID,,WIDE1-2,WIDE2-3,qAR,CT0NET:=5238.25N/00201.59W & BPQ32 NODE CBAPRS,27.235Mhz FM 1200b Packet Radio
  • Sat, 30 May 2020 11:33:14 +0000: ENG040-14>ID,,WIDE1-2,WIDE2-3,qAR,CB6APR:=5238.25N/00201.59W & BPQ32 NODE CBAPRS,27.235Mhz FM 1200b Packet Radio
  • Sat, 30 May 2020 10:00:40 +0000: ENG040-14>ID,,WIDE1-2,WIDE2-3,qAR,CT0NET:=5238.25N/00201.59W & BPQ32 NODE CBAPRS,27.235Mhz FM 1200b Packet Radio
  • Sat, 30 May 2020 09:37:31 +0000: ENG040-14>ID,,WIDE1-2,WIDE2-3:=5238.25N/00201.59W & BPQ32 NODE CBAPRS,27.235Mhz FM 1200b Packet Radio
  • Sat, 30 May 2020 09:15:00 +0000: ENG040-14>ID,,WIDE1-2,WIDE2-3,qAR,CT0NET:=5238.25N/00201.59W & BPQ32 NODE CBAPRS,27.235Mhz FM 1200b Packet Radio
  • Sat, 30 May 2020 08:52:15 +0000: ENG040-14>ID,,WIDE1-2,WIDE2-3,qAR,CT1NET:=5238.25N/00201.59W & BPQ32 NODE CBAPRS,27.235Mhz FM 1200b Packet Radio
  • Sat, 30 May 2020 08:29:41 +0000: ENG040-14>ID,,WIDE1-2,WIDE2-3,qAR,CT1NET:=5238.25N/00201.59W & BPQ32 NODE CBAPRS,27.235Mhz FM 1200b Packet Radio
  • Sat, 30 May 2020 08:28:06 +0000: ENG040-14>ID,,WIDE1-2,WIDE2-3:=5238.25N/00201.59W & BPQ32 NODE CBAPRS,27.235Mhz FM 1200b Packet Radio
  • Sat, 30 May 2020 08:04:47 +0000: ENG040-14>ID,,WIDE1-2,WIDE2-3:=5238.25N/00201.59W & BPQ32 NODE CBAPRS,27.235Mhz FM 1200b Packet Radio
  • Sat, 30 May 2020 07:42:06 +0000: ENG040-14>ID,,WIDE1-2,WIDE2-3,qAR,CT1NET:=5238.25N/00201.59W & BPQ32 NODE CBAPRS,27.235Mhz FM 1200b Packet Radio
  • Sat, 30 May 2020 07:19:42 +0000: ENG040-14>ID,,WIDE1-2,WIDE2-3,qAR,CT1NET:=5238.25N/00201.59W & BPQ32 NODE CBAPRS,27.235Mhz FM 1200b Packet Radio
  • Sat, 30 May 2020 06:55:09 +0000: ENG040-14>ID,,WIDE1-2,WIDE2-3:=5238.25N/00201.59W & BPQ32 NODE CBAPRS,27.235Mhz FM 1200b Packet Radio
  • Sat, 30 May 2020 06:32:00 +0000: ENG040-14>ID,,WIDE1-2,WIDE2-3:=5238.25N/00201.59W & BPQ32 NODE CBAPRS,27.235Mhz FM 1200b Packet Radio
  • Sat, 30 May 2020 06:09:35 +0000: ENG040-14>ID,,WIDE1-2,WIDE2-3,qAR,CT1NET:=5238.25N/00201.59W & BPQ32 NODE CBAPRS,27.235Mhz FM 1200b Packet Radio
  • Sat, 30 May 2020 05:45:37 +0000: ENG040-14>ID,,WIDE1-2,WIDE2-3,qAR,CT1NET:=5238.25N/00201.59W & BPQ32 NODE CBAPRS,27.235Mhz FM 1200b Packet Radio
  • Sat, 30 May 2020 05:22:30 +0000: ENG040-14>ID,,WIDE1-2,WIDE2-3,qAR,CT1NET:=5238.25N/00201.59W & BPQ32 NODE CBAPRS,27.235Mhz FM 1200b Packet Radio
  • Sat, 30 May 2020 04:59:40 +0000: ENG040-14>ID,,WIDE1-2,WIDE2-3,qAR,CT0NET:=5238.25N/00201.59W & BPQ32 NODE CBAPRS,27.235Mhz FM 1200b Packet Radio
  • Sat, 30 May 2020 04:36:05 +0000: ENG040-14>ID,,WIDE1-2,WIDE2-3:=5238.25N/00201.59W & BPQ32 NODE CBAPRS,27.235Mhz FM 1200b Packet Radio
  • Sat, 30 May 2020 04:14:21 +0000: ENG040-14>ID,,WIDE1-2,WIDE2-3,qAR,CT1NET:=5238.25N/00201.59W & BPQ32 NODE CBAPRS,27.235Mhz FM 1200b Packet Radio
  • Sat, 30 May 2020 04:13:00 +0000: ENG040-14>ID,,WIDE1-2,WIDE2-3:=5238.25N/00201.59W & BPQ32 NODE CBAPRS,27.235Mhz FM 1200b Packet Radio
  • Sat, 30 May 2020 03:26:45 +0000: ENG040-14>ID,,WIDE1-2,WIDE2-3,qAR,CT1NET:=5238.25N/00201.59W & BPQ32 NODE CBAPRS,27.235Mhz FM 1200b Packet Radio
  • Sat, 30 May 2020 03:03:32 +0000: ENG040-14>ID,,WIDE1-2,WIDE2-3,qAR,CT1NET:=5238.25N/00201.59W & BPQ32 NODE CBAPRS,27.235Mhz FM 1200b Packet Radio
  • Sat, 30 May 2020 01:08:47 +0000: ENG040-14>ID,,WIDE1-2,WIDE2-3,qAR,CT1NET:=5238.25N/00201.59W & BPQ32 NODE CBAPRS,27.235Mhz FM 1200b Packet Radio
  • Sat, 30 May 2020 00:22:23 +0000: ENG040-14>ID,,WIDE1-2,WIDE2-3,qAR,CT1NET:=5238.25N/00201.59W & BPQ32 NODE CBAPRS,27.235Mhz FM 1200b Packet Radio
  • Fri, 29 May 2020 20:53:35 +0000: ENG040-14>ID,,WIDE1-2,WIDE2-3,qAR,AT7NOD-7:=5238.25N/00201.59W & BPQ32 NODE CBAPRS,27.235Mhz FM 1200b Packet Radio
  • Fri, 29 May 2020 18:11:59 +0000: ENG040-14>ID,,WIDE1-2,WIDE2-3,qAS,DND665:=5238.25N/00201.59W & BPQ32 NODE CBAPRS,27.235Mhz FM 1200b Packet Radio
  • Fri, 29 May 2020 17:47:53 +0000: ENG040-14>ID,,WIDE1-2,WIDE2-3,qAR,CT1NET:=5238.25N/00201.59W & BPQ32 NODE CBAPRS,27.235Mhz FM 1200b Packet Radio
  • Fri, 29 May 2020 17:01:48 +0000: ENG040-14>ID,,WIDE1-2,WIDE2-3,qAR,CB6APR:=5238.25N/00201.59W & BPQ32 NODE CBAPRS,27.235Mhz FM 1200b Packet Radio
  • Fri, 29 May 2020 12:01:36 +0000: ENG040-14>ID,,WIDE1-2,WIDE2-3,qAS,DND665:=5238.25N/00201.59W & BPQ32 NODE CBAPRS,27.235Mhz FM 1200b Packet Radio
  • Fri, 29 May 2020 11:37:20 +0000: ENG040-14>ID,,WIDE1-2,WIDE2-3,qAS,DND665:=5238.25N/00201.59W & BPQ32 NODE CBAPRS,27.235Mhz FM 1200b Packet Radio
  • Fri, 29 May 2020 11:13:59 +0000: ENG040-14>ID,,WIDE1-2,WIDE2-3,qAS,DND665:=5238.25N/00201.59W & BPQ32 NODE CBAPRS,27.235Mhz FM 1200b Packet Radio
  • Fri, 29 May 2020 10:51:34 +0000: ENG040-14>ID,,WIDE1-2,WIDE2-3,qAR,CB7ALM-3:=5238.25N/00201.59W & BPQ32 NODE CBAPRS,27.235Mhz FM 1200b Packet Radio
  • Fri, 29 May 2020 10:27:40 +0000: ENG040-14>ID,,WIDE1-2,WIDE2-3,qAR,CT1NET:=5238.25N/00201.59W & BPQ32 NODE CBAPRS,27.235Mhz FM 1200b Packet Radio
  • Fri, 29 May 2020 10:04:21 +0000: ENG040-14>ID,,WIDE1-2,WIDE2-3,qAS,DND665:=5238.25N/00201.59W & BPQ32 NODE CBAPRS,27.235Mhz FM 1200b Packet Radio
  • Fri, 29 May 2020 06:36:30 +0000: ENG040-14>ID,,WIDE1-2,WIDE2-3,qAS,DND665:=5238.25N/00201.59W & BPQ32 NODE CBAPRS,27.235Mhz FM 1200b Packet Radio
  • Fri, 29 May 2020 05:51:16 +0000: ENG040-14>ID,,WIDE1-2,WIDE2-3,qAR,CT1NET:=5238.25N/00201.59W & BPQ32 NODE CBAPRS,27.235Mhz FM 1200b Packet Radio
  • Tue, 26 May 2020 18:50:29 +0000: ENG040-14>ID,,WIDE1-2,WIDE2-3,qAR,CT0NET:=5238.25N/00201.59W & BPQ32 NODE CBAPRS,27.235Mhz FM 1200b Packet Radio
  • Tue, 26 May 2020 18:26:06 +0000: ENG040-14>ID,,WIDE1-2,WIDE2-3,qAR,CT1NET:=5238.25N/00201.59W & BPQ32 NODE CBAPRS,27.235Mhz FM 1200b Packet Radio
  • Tue, 26 May 2020 14:58:10 +0000: ENG040-14>ID,,WIDE1-2,WIDE2-3,qAR,CT1NET:=5238.25N/00201.59W & BPQ32 NODE CBAPRS,27.235Mhz FM 1200b Packet Radio
  • Mon, 25 May 2020 10:48:25 +0000: ENG040-14>ID,,WIDE1-2,WIDE2-3,qAR,CT1NET:=5238.25N/00201.59W & BPQ32 NODE CBAPRS,27.235Mhz FM 1200b Packet Radio
  • Sun, 24 May 2020 12:03:52 +0000: ENG040-14>ID,,WIDE1-2,WIDE2-3,qAR,SV8NOD-7:=5238.25N/00201.59W & BPQ32 NODE CBAPRS,27.235Mhz FM 1200b Packet Radio
  • Sun, 24 May 2020 10:55:03 +0000: ENG040-14>ID,,WIDE1-2,WIDE2-3,qAR,13FHO:=5238.25N/00201.59W & BPQ32 NODE CBAPRS,27.235Mhz FM 1200b Packet Radio
  • Sun, 24 May 2020 10:31:21 +0000: ENG040-14>ID,,WIDE1-2,WIDE2-3,qAR,13FHO:=5238.25N/00201.59W & BPQ32 NODE CBAPRS,27.235Mhz FM 1200b Packet Radio
  • Sun, 24 May 2020 10:08:12 +0000: ENG040-14>ID,,WIDE1-2,WIDE2-3,qAR,CT1NET:=5238.25N/00201.59W & BPQ32 NODE CBAPRS,27.235Mhz FM 1200b Packet Radio
  • Sun, 24 May 2020 09:44:57 +0000: ENG040-14>ID,,WIDE1-2,WIDE2-3,qAR,CT1NET:=5238.25N/00201.59W & BPQ32 NODE CBAPRS,27.235Mhz FM 1200b Packet Radio
  • Sun, 24 May 2020 09:21:39 +0000: ENG040-14>ID,,WIDE1-2,WIDE2-3,qAR,CT1NET:=5238.25N/00201.59W & BPQ32 NODE CBAPRS,27.235Mhz FM 1200b Packet Radio
  • Fri, 22 May 2020 16:06:08 +0000: ENG040-14>ID,,WIDE1-2,WIDE2-3,qAS,DND665:=5238.25N/00201.59W & BPQ32 NODE CBAPRS,27.235Mhz FM 1200b Packet Radio
  • Fri, 22 May 2020 15:42:15 +0000: ENG040-14>ID,,WIDE1-2,WIDE2-3,qAR,CT1NET:=5238.25N/00201.59W & BPQ32 NODE CBAPRS,27.235Mhz FM 1200b Packet Radio
  • Fri, 22 May 2020 15:21:18 +0000: ENG040-14>ID,,WIDE1-2,WIDE2-3,qAS,DND665:=5238.25N/00201.59W & BPQ32 NODE CBAPRS,27.235Mhz FM 1200b Packet Radio
  • Wed, 20 May 2020 15:29:49 +0000: ENG040-14>ID,,WIDE1-2,WIDE2-3,qAS,DND665:=5238.25N/00201.59W & BPQ32 NODE CBAPRS,27.235Mhz FM 1200b Packet Radio
  • Wed, 20 May 2020 12:47:42 +0000: ENG040-14>ID,,WIDE1-2,WIDE2-3,qAR,CB7ALM-3:=5238.25N/00201.59W & BPQ32 NODE CBAPRS,27.235Mhz FM 1200b Packet Radio
  • Wed, 20 May 2020 12:24:45 +0000: ENG040-14>ID,,MEAPRS-1,WIDE1-2,WIDE2-3*,qAR,FRA001:=5238.25N/00201.59W & BPQ32 NODE CBAPRS,27.235Mhz FM 1200b Packet Radio
  • Wed, 20 May 2020 12:01:40 +0000: ENG040-14>ID,,MEAPRS-1,WIDE1-2,WIDE2-3*,qAR,ENG101:=5238.25N/00201.59W & BPQ32 NODE CBAPRS,27.235Mhz FM 1200b Packet Radio
  • Wed, 20 May 2020 11:38:08 +0000: ENG040-14>ID,,WIDE1-2,WIDE2-3,qAR,NL1ZUT-10:=5238.25N/00201.59W & BPQ32 NODE CBAPRS,27.235Mhz FM 1200b Packet Radio
  • Wed, 20 May 2020 11:16:29 +0000: ENG040-14>ID,,WIDE1-2,WIDE2-3,qAR,CT0NET:=5238.25N/00201.59W & BPQ32 NODE CBAPRS,27.235Mhz FM 1200b Packet Radio
  • Wed, 20 May 2020 10:51:55 +0000: ENG040-14>ID,,WIDE1-2,WIDE2-3,qAR,CT0NET:=5238.25N/00201.59W & BPQ32 NODE CBAPRS,27.235Mhz FM 1200b Packet Radio
  • Wed, 20 May 2020 10:28:55 +0000: ENG040-14>ID,,MEAPRS-1,WIDE1-2,WIDE2-3*,qAR,FRA107-3,FRA107,FRB243:=5238.25N/00201.59W & BPQ32 NODE CBAPRS,27.235Mhz FM 1200b Packet Radio
  • Wed, 20 May 2020 04:18:24 +0000: ENG040-14>ID,,MEAPRS-1,WIDE1-2,WIDE2-3*,qAR,ENG101:=5238.25N/00201.59W & BPQ32 NODE CBAPRS,27.235Mhz FM 1200b Packet Radio
  • Tue, 19 May 2020 19:26:19 +0000: ENG040-14>ID,,qAR,FRA160-10:=5238.25N/00201.59W & BPQ32 NODE CBAPRS,27.235Mhz FM 1200b Packet Radio
  • Tue, 19 May 2020 16:43:43 +0000: ENG040-14>ID,,WIDE1-2,WIDE2-3,qAR,CT1NET:=5238.25N/00201.59W & BPQ32 NODE CBAPRS,27.235Mhz FM 1200b Packet Radio
  • Tue, 19 May 2020 16:20:37 +0000: ENG040-14>ID,,WIDE1-2,WIDE2-3,qAR,CT1NET:=5238.25N/00201.59W & BPQ32 NODE CBAPRS,27.235Mhz FM 1200b Packet Radio
  • Tue, 19 May 2020 15:35:33 +0000: ENG040-14>ID,,MEAPRS-1,WIDE1-2,WIDE2-3*,qAR,ENG101:=5238.25N/00201.59W & BPQ32 NODE CBAPRS,27.235Mhz FM 1200b Packet Radio
  • Mon, 18 May 2020 19:07:30 +0000: ENG040-14>ID,,WIDE1-2,WIDE2-3,qAR,NL1ZUT-10:=5238.25N/00201.59W & BPQ32 NODE CBAPRS,27.235Mhz FM 1200b Packet Radio
  • Mon, 18 May 2020 15:40:34 +0000: ENG040-14>ID,,WIDE1-2,WIDE2-3,qAR,CT0NET:=5238.25N/00201.59W & BPQ32 NODE CBAPRS,27.235Mhz FM 1200b Packet Radio
  • Mon, 18 May 2020 14:07:54 +0000: ENG040-14>ID,,WIDE1-2,WIDE2-3,qAS,DND665:=5238.25N/00201.59W & BPQ32 NODE CBAPRS,27.235Mhz FM 1200b Packet Radio